Historyczne dane pomiarowe

Dodano dane terminowe – wersja testowa.

Dane z okresu 1951-2019

Wersja bazy: 1.34 [2019-03-16, lista zmian], aktualizacja planowana na 2019-04-15

Dane meteo z obszaru Polski uzyskane na podstawie danych udostępnionych przez Instytut Meteorologii i Gospodarki Wodnej – Państwowy Instytut Badawczy.

 

Wybierz Datę:    

       

TemperaturaWilgotnośćWiatrCiśnienieOpadyŚniegCzas trwania zjawisk
 Stacja t tx tn tng RH VA  wxwx mslp ppp RRR   cm mm wxwxwxwxwxwxwx
1965-07-16 21.2 26.3 14.7--- 4.0 3.0---- 15.5------------
1965-07-17 14.6 18.8 13.6--- 7.7 4.0---- 0.0------------
1965-07-18 15.5 19.7 11.1--- 2.3 3.0---- 9.2------------
1965-07-19 16.4 21.6 7.6--- 0.3 1.0---- 0.0------------
1965-07-20 18.1 23.9 8.1--- 1.3 1.0---- 0.0------------
1965-07-21 17.2 23.3 10.2--- 1.3 1.7---- 0.0------------
1965-07-22 16.6 19.6 13.1--- 7.7 1.0---- 29.5------------
1965-07-23 16.1 23.2 12.6--- 5.7 2.0---- 4.8------------
1965-07-24 15.8 21.4 13.8--- 5.7 2.0---- 1.6------------
1965-07-25 16.1 20.9 11.8--- 1.3 4.7---- 0.0------------
1965-07-26 14.3 18.9 11.3--- 6.7 3.0---- 2.7------------
1965-07-27 12.3 13.6 11.3--- 7.7 3.0---- 6.4------------
1965-07-28 11.6 15.7 10.1--- 6.3 3.3---- 9.4------------
1965-07-29 14.4 16.6 10.1--- 8.0 3.0---- 8.6------------
1965-07-30 13.4 17.4 12.3--- 7.7 3.0---- 4.3------------
1965-07-31 14.7 18.7 12.6--- 7.3 2.3---- 1.6------------
1965-08-01 11.6 16.9 9.3--- 3.7 2.7---- 0.0------------
1965-08-02 10.4 14.5 5.5--- 8.0 1.0---- 4.4------------
1965-08-03 12.8 18.2 8.3--- 6.3 2.7---- 0.2------------
1965-08-04 13.4 18.8 10.8--- 5.0 2.0---- 0.0------------
1965-08-05 12.5 17.3 10.7--- 5.0 2.3---- 0.0------------
1965-08-06 19.7 24.3 7.4--- 3.7 2.7---- 2.7------------
1965-08-07 20.0 24.1 15.6--- 7.3 4.0---- 0.0------------
1965-08-08 14.4 19.9 12.9--- 7.3 1.7---- 4.8------------
1965-08-09 14.0 17.8 12.3--- 7.0 1.7---- 14.6------------
1965-08-10 11.8 16.3 9.2--- 3.0 2.7---- 0.0------------
1965-08-11 12.3 16.9 5.5--- 6.7 1.0---- 0.0------------
1965-08-12 11.6 17.0 8.5--- 7.0 3.3---- 0.9------------
1965-08-13 10.8 14.5 8.4--- 6.7 3.3---- 4.0------------
1965-08-14 11.4 13.8 6.9--- 8.0 1.3---- 0.6------------
233.4 ms

 

Źródłem pochodzenia danych jest Instytut Meteorologii i Gospodarki Wodnej – Państwowy Instytut Badawczy. Dane Instytutu Meteorologii i Gospodarki Wodnej – Państwowego Instytutu Badawczego zostały przetworzone.

Dane źródłowe można odnaleźć na stronie https://dane.imgw.pl